sensor_id;sensor_type;location;lat;lon;timestamp;P1;P2;P0
35654;PMS1003;21773;50.010;19.972;2022-12-11T00:01:33;23.20;21.20;18.20
35654;PMS1003;21773;50.010;19.972;2022-12-11T00:04:38;26.40;23.60;19.60
35654;PMS1003;21773;50.010;19.972;2022-12-11T00:07:45;25.20;21.60;18.20
35654;PMS1003;21773;50.010;19.972;2022-12-11T00:11:24;20.60;19.00;16.00
35654;PMS1003;21773;50.010;19.972;2022-12-11T00:14:27;24.20;21.20;16.80
35654;PMS1003;21773;50.010;19.972;2022-12-11T00:17:31;23.00;21.00;18.00
35654;PMS1003;21773;50.010;19.972;2022-12-11T00:20:37;19.80;18.20;16.00
35654;PMS1003;21773;50.010;19.972;2022-12-11T00:23:41;23.80;20.20;16.60
35654;PMS1003;21773;50.010;19.972;2022-12-11T00:26:45;26.00;25.00;20.00
35654;PMS1003;21773;50.010;19.972;2022-12-11T00:29:49;24.00;19.50;17.50
35654;PMS1003;21773;50.010;19.972;2022-12-11T00:32:52;22.20;19.20;16.20
35654;PMS1003;21773;50.010;19.972;2022-12-11T00:35:57;21.25;21.00;18.00
35654;PMS1003;21773;50.010;19.972;2022-12-11T00:39:00;23.33;20.33;17.00
35654;PMS1003;21773;50.010;19.972;2022-12-11T00:42:04;19.40;18.40;15.40
35654;PMS1003;21773;50.010;19.972;2022-12-11T00:45:08;19.00;17.60;14.00
35654;PMS1003;21773;50.010;19.972;2022-12-11T00:48:12;24.00;22.00;20.00
35654;PMS1003;21773;50.010;19.972;2022-12-11T00:51:17;24.00;20.00;17.00
35654;PMS1003;21773;50.010;19.972;2022-12-11T00:54:21;23.00;20.40;18.00
35654;PMS1003;21773;50.010;19.972;2022-12-11T00:57:25;22.20;21.20;17.60
35654;PMS1003;21773;50.010;19.972;2022-12-11T01:00:28;19.00;18.00;15.00
35654;PMS1003;21773;50.010;19.972;2022-12-11T01:03:31;24.20;21.00;17.20
35654;PMS1003;21773;50.010;19.972;2022-12-11T01:06:36;23.00;20.00;16.00
35654;PMS1003;21773;50.010;19.972;2022-12-11T01:09:41;25.00;21.75;18.75
35654;PMS1003;21773;50.010;19.972;2022-12-11T01:13:03;23.00;20.60;17.00
35654;PMS1003;21773;50.010;19.972;2022-12-11T01:16:07;22.00;18.60;15.00
35654;PMS1003;21773;50.010;19.972;2022-12-11T01:19:12;19.00;18.00;15.00
35654;PMS1003;21773;50.010;19.972;2022-12-11T01:22:17;22.60;19.60;16.60
35654;PMS1003;21773;50.010;19.972;2022-12-11T01:25:20;20.50;18.50;15.50
35654;PMS1003;21773;50.010;19.972;2022-12-11T01:28:24;20.20;19.00;16.00
35654;PMS1003;21773;50.010;19.972;2022-12-11T01:31:28;23.75;21.75;19.00
35654;PMS1003;21773;50.010;19.972;2022-12-11T01:34:32;24.00;21.60;18.00
35654;PMS1003;21773;50.010;19.972;2022-12-11T01:37:38;22.60;21.00;17.60
35654;PMS1003;21773;50.010;19.972;2022-12-11T01:40:44;22.00;19.80;16.80
35654;PMS1003;21773;50.010;19.972;2022-12-11T01:44:04;18.00;16.00;13.40
35654;PMS1003;21773;50.010;19.972;2022-12-11T01:47:09;20.20;17.60;15.00
35654;PMS1003;21773;50.010;19.972;2022-12-11T01:50:12;23.00;18.80;15.40
35654;PMS1003;21773;50.010;19.972;2022-12-11T01:53:18;19.60;16.00;12.60
35654;PMS1003;21773;50.010;19.972;2022-12-11T01:56:25;17.25;15.00;12.25
35654;PMS1003;21773;50.010;19.972;2022-12-11T01:59:30;19.40;17.20;12.60
35654;PMS1003;21773;50.010;19.972;2022-12-11T02:02:38;21.60;20.20;16.00
35654;PMS1003;21773;50.010;19.972;2022-12-11T02:05:41;22.80;21.20;17.80
35654;PMS1003;21773;50.010;19.972;2022-12-11T02:08:46;22.00;19.60;16.60
35654;PMS1003;21773;50.010;19.972;2022-12-11T02:11:51;18.20;15.20;12.80
35654;PMS1003;21773;50.010;19.972;2022-12-11T02:15:04;19.00;17.00;15.00
35654;PMS1003;21773;50.010;19.972;2022-12-11T02:18:15;22.00;19.40;17.00
35654;PMS1003;21773;50.010;19.972;2022-12-11T02:21:27;17.50;17.00;15.00
35654;PMS1003;21773;50.010;19.972;2022-12-11T02:24:45;24.00;21.40;19.00
35654;PMS1003;21773;50.010;19.972;2022-12-11T02:28:06;23.00;21.40;18.00
35654;PMS1003;21773;50.010;19.972;2022-12-11T02:31:20;20.00;18.00;16.00
35654;PMS1003;21773;50.010;19.972;2022-12-11T02:34:31;19.20;17.80;16.20
35654;PMS1003;21773;50.010;19.972;2022-12-11T02:37:40;19.50;18.00;16.00
35654;PMS1003;21773;50.010;19.972;2022-12-11T02:40:47;18.40;17.20;16.00
35654;PMS1003;21773;50.010;19.972;2022-12-11T02:43:55;18.75;15.75;12.75
35654;PMS1003;21773;50.010;19.972;2022-12-11T02:47:01;18.00;16.00;14.00
35654;PMS1003;21773;50.010;19.972;2022-12-11T02:50:07;17.80;15.20;12.80
35654;PMS1003;21773;50.010;19.972;2022-12-11T02:53:15;16.20;15.20;13.80
35654;PMS1003;21773;50.010;19.972;2022-12-11T02:56:23;18.00;16.50;14.25
35654;PMS1003;21773;50.010;19.972;2022-12-11T02:59:33;20.00;18.40;16.00
35654;PMS1003;21773;50.010;19.972;2022-12-11T03:02:38;17.60;15.00;13.40
35654;PMS1003;21773;50.010;19.972;2022-12-11T03:05:43;19.40;16.00;14.00
35654;PMS1003;21773;50.010;19.972;2022-12-11T03:08:47;20.40;18.40;15.40
35654;PMS1003;21773;50.010;19.972;2022-12-11T03:11:52;17.00;15.00;13.00
35654;PMS1003;21773;50.010;19.972;2022-12-11T03:14:58;19.00;18.00;15.00
35654;PMS1003;21773;50.010;19.972;2022-12-11T03:18:05;18.40;17.00;15.00
35654;PMS1003;21773;50.010;19.972;2022-12-11T03:21:17;19.00;16.00;15.00
35654;PMS1003;21773;50.010;19.972;2022-12-11T03:24:29;17.00;16.00;13.20
35654;PMS1003;21773;50.010;19.972;2022-12-11T03:27:41;18.50;17.00;15.00
35654;PMS1003;21773;50.010;19.972;2022-12-11T03:30:52;16.00;16.00;13.60
35654;PMS1003;21773;50.010;19.972;2022-12-11T03:33:57;20.00;19.40;16.40
35654;PMS1003;21773;50.010;19.972;2022-12-11T03:37:05;16.80;16.20;14.80
35654;PMS1003;21773;50.010;19.972;2022-12-11T03:40:11;21.00;19.00;17.00
35654;PMS1003;21773;50.010;19.972;2022-12-11T03:43:18;16.67;14.67;13.00
35654;PMS1003;21773;50.010;19.972;2022-12-11T03:46:26;17.00;16.60;14.60
35654;PMS1003;21773;50.010;19.972;2022-12-11T03:49:34;19.20;17.00;14.60
35654;PMS1003;21773;50.010;19.972;2022-12-11T03:52:42;15.40;15.00;12.40
35654;PMS1003;21773;50.010;19.972;2022-12-11T03:55:47;17.00;16.00;14.00
35654;PMS1003;21773;50.010;19.972;2022-12-11T03:58:53;20.00;16.00;12.50
35654;PMS1003;21773;50.010;19.972;2022-12-11T04:01:58;20.50;18.75;16.00
35654;PMS1003;21773;50.010;19.972;2022-12-11T04:05:02;18.50;17.00;15.00
35654;PMS1003;21773;50.010;19.972;2022-12-11T04:08:05;17.00;16.00;14.00
35654;PMS1003;21773;50.010;19.972;2022-12-11T04:11:09;16.00;16.00;13.00
35654;PMS1003;21773;50.010;19.972;2022-12-11T04:14:30;17.00;16.00;14.00
35654;PMS1003;21773;50.010;19.972;2022-12-11T04:17:52;16.80;14.80;12.80
35654;PMS1003;21773;50.010;19.972;2022-12-11T04:21:12;17.40;15.80;13.40
35654;PMS1003;21773;50.010;19.972;2022-12-11T04:24:40;16.00;16.00;14.00
35654;PMS1003;21773;50.010;19.972;2022-12-11T04:27:44;15.20;13.00;12.00
35654;PMS1003;21773;50.010;19.972;2022-12-11T04:30:53;16.60;15.00;12.60
35654;PMS1003;21773;50.010;19.972;2022-12-11T04:33:58;16.00;14.20;12.80
35654;PMS1003;21773;50.010;19.972;2022-12-11T04:37:01;16.00;15.00;13.00
35654;PMS1003;21773;50.010;19.972;2022-12-11T04:40:06;15.40;14.40;12.60
35654;PMS1003;21773;50.010;19.972;2022-12-11T04:43:11;16.00;15.00;12.00
35654;PMS1003;21773;50.010;19.972;2022-12-11T04:46:15;16.00;16.00;14.00
35654;PMS1003;21773;50.010;19.972;2022-12-11T04:49:22;13.50;13.25;12.25
35654;PMS1003;21773;50.010;19.972;2022-12-11T04:52:26;14.20;13.40;12.00
35654;PMS1003;21773;50.010;19.972;2022-12-11T04:55:30;12.20;12.00;10.00
35654;PMS1003;21773;50.010;19.972;2022-12-11T04:58:33;13.75;13.00;12.00
35654;PMS1003;21773;50.010;19.972;2022-12-11T05:01:37;14.00;14.00;11.00
35654;PMS1003;21773;50.010;19.972;2022-12-11T05:04:42;15.20;14.40;12.80
35654;PMS1003;21773;50.010;19.972;2022-12-11T05:07:45;15.00;14.00;12.40
35654;PMS1003;21773;50.010;19.972;2022-12-11T05:10:53;12.60;12.00;10.00
35654;PMS1003;21773;50.010;19.972;2022-12-11T05:13:57;14.60;13.00;11.60
35654;PMS1003;21773;50.010;19.972;2022-12-11T05:17:01;13.20;11.00;10.00
35654;PMS1003;21773;50.010;19.972;2022-12-11T05:20:06;13.00;12.00;11.00
35654;PMS1003;21773;50.010;19.972;2022-12-11T05:23:11;13.00;12.00;10.00
35654;PMS1003;21773;50.010;19.972;2022-12-11T05:26:15;14.00;13.00;11.00
35654;PMS1003;21773;50.010;19.972;2022-12-11T05:29:21;14.00;14.00;12.00
35654;PMS1003;21773;50.010;19.972;2022-12-11T05:32:24;12.80;11.80;10.00
35654;PMS1003;21773;50.010;19.972;2022-12-11T05:35:30;16.00;14.00;12.60
35654;PMS1003;21773;50.010;19.972;2022-12-11T05:38:33;18.25;16.50;14.50
35654;PMS1003;21773;50.010;19.972;2022-12-11T05:41:37;15.00;13.33;11.33
35654;PMS1003;21773;50.010;19.972;2022-12-11T05:44:40;15.20;14.20;12.20
35654;PMS1003;21773;50.010;19.972;2022-12-11T05:47:44;16.00;15.00;13.00
35654;PMS1003;21773;50.010;19.972;2022-12-11T05:54:10;15.00;14.00;12.00
35654;PMS1003;21773;50.010;19.972;2022-12-11T05:57:14;15.50;14.50;12.00
35654;PMS1003;21773;50.010;19.972;2022-12-11T06:00:17;15.00;14.00;12.00
35654;PMS1003;21773;50.010;19.972;2022-12-11T06:03:21;13.60;11.60;10.00
35654;PMS1003;21773;50.010;19.972;2022-12-11T06:06:26;15.67;13.00;11.00
35654;PMS1003;21773;50.010;19.972;2022-12-11T06:09:30;15.00;15.00;13.00
35654;PMS1003;21773;50.010;19.972;2022-12-11T06:12:34;18.00;15.80;14.20
35654;PMS1003;21773;50.010;19.972;2022-12-11T06:15:38;16.00;15.00;14.00
35654;PMS1003;21773;50.010;19.972;2022-12-11T06:18:42;15.00;13.00;12.00
35654;PMS1003;21773;50.010;19.972;2022-12-11T06:21:48;18.40;15.00;12.00
35654;PMS1003;21773;50.010;19.972;2022-12-11T06:24:51;21.40;18.40;15.00
35654;PMS1003;21773;50.010;19.972;2022-12-11T06:27:55;17.60;15.00;12.00
35654;PMS1003;21773;50.010;19.972;2022-12-11T06:30:59;15.00;13.80;11.00
35654;PMS1003;21773;50.010;19.972;2022-12-11T06:34:02;19.00;17.00;14.00
35654;PMS1003;21773;50.010;19.972;2022-12-11T06:37:08;15.00;13.00;11.00
35654;PMS1003;21773;50.010;19.972;2022-12-11T06:40:11;18.00;17.00;15.00
35654;PMS1003;21773;50.010;19.972;2022-12-11T06:43:15;19.00;17.25;16.00
35654;PMS1003;21773;50.010;19.972;2022-12-11T06:46:18;15.80;14.20;11.80
35654;PMS1003;21773;50.010;19.972;2022-12-11T06:49:22;17.00;16.00;13.60
35654;PMS1003;21773;50.010;19.972;2022-12-11T06:52:27;20.00;16.00;13.00
35654;PMS1003;21773;50.010;19.972;2022-12-11T06:55:33;16.40;14.40;13.00
35654;PMS1003;21773;50.010;19.972;2022-12-11T06:58:37;15.25;15.00;13.25
35654;PMS1003;21773;50.010;19.972;2022-12-11T07:01:41;17.00;15.00;14.00
35654;PMS1003;21773;50.010;19.972;2022-12-11T07:04:44;20.40;16.00;13.60
35654;PMS1003;21773;50.010;19.972;2022-12-11T07:07:56;16.00;16.00;14.40
35654;PMS1003;21773;50.010;19.972;2022-12-11T07:11:03;20.40;17.00;14.00
35654;PMS1003;21773;50.010;19.972;2022-12-11T07:14:07;16.80;16.00;14.00
35654;PMS1003;21773;50.010;19.972;2022-12-11T07:17:10;18.40;17.60;15.40
35654;PMS1003;21773;50.010;19.972;2022-12-11T07:20:14;16.40;14.40;13.00
35654;PMS1003;21773;50.010;19.972;2022-12-11T07:23:19;16.80;15.00;13.00
35654;PMS1003;21773;50.010;19.972;2022-12-11T07:26:23;16.00;15.00;13.25
35654;PMS1003;21773;50.010;19.972;2022-12-11T07:29:27;18.80;16.80;14.40
35654;PMS1003;21773;50.010;19.972;2022-12-11T07:32:31;16.20;15.20;13.60
35654;PMS1003;21773;50.010;19.972;2022-12-11T07:35:34;15.00;14.60;13.00
35654;PMS1003;21773;50.010;19.972;2022-12-11T07:38:39;17.20;17.00;16.00
35654;PMS1003;21773;50.010;19.972;2022-12-11T07:41:43;15.80;15.00;12.00
35654;PMS1003;21773;50.010;19.972;2022-12-11T07:44:49;20.25;18.00;16.00
35654;PMS1003;21773;50.010;19.972;2022-12-11T07:47:52;16.60;15.00;13.60
35654;PMS1003;21773;50.010;19.972;2022-12-11T07:51:05;16.00;14.00;11.00
35654;PMS1003;21773;50.010;19.972;2022-12-11T07:54:11;17.40;16.00;14.40
35654;PMS1003;21773;50.010;19.972;2022-12-11T07:57:17;16.50;15.00;14.00
35654;PMS1003;21773;50.010;19.972;2022-12-11T08:00:21;15.00;13.75;11.75
35654;PMS1003;21773;50.010;19.972;2022-12-11T08:03:24;17.50;16.00;13.00
35654;PMS1003;21773;50.010;19.972;2022-12-11T08:06:29;15.60;14.00;13.00
35654;PMS1003;21773;50.010;19.972;2022-12-11T08:09:35;17.00;15.25;14.00
35654;PMS1003;21773;50.010;19.972;2022-12-11T08:12:38;21.20;20.60;18.60
35654;PMS1003;21773;50.010;19.972;2022-12-11T08:15:41;19.60;17.60;15.60
35654;PMS1003;21773;50.010;19.972;2022-12-11T08:18:45;16.00;13.00;12.00
35654;PMS1003;21773;50.010;19.972;2022-12-11T08:21:49;17.25;16.00;13.25
35654;PMS1003;21773;50.010;19.972;2022-12-11T08:24:54;17.00;14.50;12.00
35654;PMS1003;21773;50.010;19.972;2022-12-11T08:27:58;17.00;15.00;14.00
35654;PMS1003;21773;50.010;19.972;2022-12-11T08:31:02;18.00;16.00;15.00
35654;PMS1003;21773;50.010;19.972;2022-12-11T08:34:07;16.00;14.00;12.00
35654;PMS1003;21773;50.010;19.972;2022-12-11T08:37:14;17.00;15.00;13.00
35654;PMS1003;21773;50.010;19.972;2022-12-11T08:40:19;20.00;18.00;15.60
35654;PMS1003;21773;50.010;19.972;2022-12-11T08:43:22;17.40;16.40;14.00
35654;PMS1003;21773;50.010;19.972;2022-12-11T08:46:27;18.00;18.00;16.00
35654;PMS1003;21773;50.010;19.972;2022-12-11T08:49:32;18.00;16.00;14.00
35654;PMS1003;21773;50.010;19.972;2022-12-11T08:52:35;14.50;14.00;11.00
35654;PMS1003;21773;50.010;19.972;2022-12-11T08:55:40;16.00;14.00;12.20
35654;PMS1003;21773;50.010;19.972;2022-12-11T08:58:43;15.60;13.60;11.60
35654;PMS1003;21773;50.010;19.972;2022-12-11T09:01:48;19.20;15.60;13.60
35654;PMS1003;21773;50.010;19.972;2022-12-11T09:04:51;16.00;15.00;13.00
35654;PMS1003;21773;50.010;19.972;2022-12-11T09:07:55;15.33;14.00;13.00
35654;PMS1003;21773;50.010;19.972;2022-12-11T09:11:05;15.00;15.00;13.00
35654;PMS1003;21773;50.010;19.972;2022-12-11T09:14:10;18.00;15.00;13.00
35654;PMS1003;21773;50.010;19.972;2022-12-11T09:17:13;17.00;16.00;14.00
35654;PMS1003;21773;50.010;19.972;2022-12-11T09:20:17;15.00;12.00;11.00
35654;PMS1003;21773;50.010;19.972;2022-12-11T09:23:20;16.00;15.60;13.60
35654;PMS1003;21773;50.010;19.972;2022-12-11T09:26:26;16.40;14.40;12.60
35654;PMS1003;21773;50.010;19.972;2022-12-11T09:29:31;14.80;13.80;12.00
35654;PMS1003;21773;50.010;19.972;2022-12-11T09:32:34;15.75;14.00;13.00
35654;PMS1003;21773;50.010;19.972;2022-12-11T09:35:38;14.60;13.00;10.60
35654;PMS1003;21773;50.010;19.972;2022-12-11T09:38:41;16.00;15.00;13.00
35654;PMS1003;21773;50.010;19.972;2022-12-11T09:41:48;15.40;14.00;11.80
35654;PMS1003;21773;50.010;19.972;2022-12-11T09:44:57;18.00;16.00;14.00
35654;PMS1003;21773;50.010;19.972;2022-12-11T09:48:04;14.80;14.00;12.00
35654;PMS1003;21773;50.010;19.972;2022-12-11T09:51:12;13.40;13.40;12.20
35654;PMS1003;21773;50.010;19.972;2022-12-11T09:54:21;17.00;16.00;14.00
35654;PMS1003;21773;50.010;19.972;2022-12-11T09:57:30;16.00;16.00;14.00
35654;PMS1003;21773;50.010;19.972;2022-12-11T10:00:44;16.00;15.75;14.00
35654;PMS1003;21773;50.010;19.972;2022-12-11T10:03:53;15.00;14.00;13.00
35654;PMS1003;21773;50.010;19.972;2022-12-11T10:07:25;16.00;14.60;12.40
35654;PMS1003;21773;50.010;19.972;2022-12-11T10:10:37;19.20;16.60;14.00
35654;PMS1003;21773;50.010;19.972;2022-12-11T10:13:47;18.00;16.60;15.00
35654;PMS1003;21773;50.010;19.972;2022-12-11T10:17:01;18.00;16.00;14.00
35654;PMS1003;21773;50.010;19.972;2022-12-11T10:20:17;13.60;12.40;10.40
35654;PMS1003;21773;50.010;19.972;2022-12-11T10:23:26;12.75;12.00;11.25
35654;PMS1003;21773;50.010;19.972;2022-12-11T10:26:36;17.00;15.00;14.00
35654;PMS1003;21773;50.010;19.972;2022-12-11T10:29:43;16.00;15.00;14.00
35654;PMS1003;21773;50.010;19.972;2022-12-11T10:32:49;18.40;16.40;14.00
35654;PMS1003;21773;50.010;19.972;2022-12-11T10:35:55;18.00;17.00;16.00
35654;PMS1003;21773;50.010;19.972;2022-12-11T10:38:59;14.20;13.80;12.00
35654;PMS1003;21773;50.010;19.972;2022-12-11T10:42:05;18.80;18.00;15.80
35654;PMS1003;21773;50.010;19.972;2022-12-11T10:45:22;17.50;15.25;13.25
35654;PMS1003;21773;50.010;19.972;2022-12-11T10:48:26;16.80;15.40;13.80
35654;PMS1003;21773;50.010;19.972;2022-12-11T10:51:32;16.00;13.60;12.00
35654;PMS1003;21773;50.010;19.972;2022-12-11T10:54:38;14.40;14.40;13.00
35654;PMS1003;21773;50.010;19.972;2022-12-11T10:57:43;15.50;13.50;12.00
35654;PMS1003;21773;50.010;19.972;2022-12-11T11:00:57;15.00;13.60;12.00
35654;PMS1003;21773;50.010;19.972;2022-12-11T11:04:06;13.20;13.20;11.60
35654;PMS1003;21773;50.010;19.972;2022-12-11T11:07:18;19.50;17.00;15.00
35654;PMS1003;21773;50.010;19.972;2022-12-11T11:10:24;16.60;16.60;15.00
35654;PMS1003;21773;50.010;19.972;2022-12-11T11:13:29;18.00;16.00;14.00
35654;PMS1003;21773;50.010;19.972;2022-12-11T11:16:35;22.75;20.75;18.25
35654;PMS1003;21773;50.010;19.972;2022-12-11T11:19:39;19.20;18.80;16.20
35654;PMS1003;21773;50.010;19.972;2022-12-11T11:22:44;18.00;15.25;14.00
35654;PMS1003;21773;50.010;19.972;2022-12-11T11:25:51;18.60;17.00;15.00
35654;PMS1003;21773;50.010;19.972;2022-12-11T11:28:56;16.00;15.00;13.60
35654;PMS1003;21773;50.010;19.972;2022-12-11T11:32:13;21.40;20.40;18.40
35654;PMS1003;21773;50.010;19.972;2022-12-11T11:35:21;19.60;18.40;15.40
35654;PMS1003;21773;50.010;19.972;2022-12-11T11:38:28;20.00;19.40;17.60
35654;PMS1003;21773;50.010;19.972;2022-12-11T11:41:37;16.20;15.40;14.20
35654;PMS1003;21773;50.010;19.972;2022-12-11T11:44:50;21.00;19.00;17.00
35654;PMS1003;21773;50.010;19.972;2022-12-11T11:48:10;20.00;18.00;15.00
35654;PMS1003;21773;50.010;19.972;2022-12-11T11:51:26;23.60;21.60;19.00
35654;PMS1003;21773;50.010;19.972;2022-12-11T11:54:33;21.40;20.00;18.40
35654;PMS1003;21773;50.010;19.972;2022-12-11T11:57:41;24.00;21.60;18.60
35654;PMS1003;21773;50.010;19.972;2022-12-11T12:00:49;25.25;23.25;19.75
35654;PMS1003;21773;50.010;19.972;2022-12-11T12:03:56;19.60;18.00;15.40
35654;PMS1003;21773;50.010;19.972;2022-12-11T12:07:10;22.00;22.00;20.00
35654;PMS1003;21773;50.010;19.972;2022-12-11T12:10:25;25.00;23.00;20.00
35654;PMS1003;21773;50.010;19.972;2022-12-11T12:13:38;24.00;21.75;18.75
35654;PMS1003;21773;50.010;19.972;2022-12-11T12:16:53;24.00;21.00;18.00
35654;PMS1003;21773;50.010;19.972;2022-12-11T12:20:11;25.60;23.80;20.00
35654;PMS1003;21773;50.010;19.972;2022-12-11T12:23:31;28.60;26.40;22.00
35654;PMS1003;21773;50.010;19.972;2022-12-11T12:26:48;23.60;21.60;18.60
35654;PMS1003;21773;50.010;19.972;2022-12-11T12:29:59;25.00;22.00;19.50
35654;PMS1003;21773;50.010;19.972;2022-12-11T12:33:18;23.00;21.00;19.00
35654;PMS1003;21773;50.010;19.972;2022-12-11T12:36:35;23.60;22.00;20.00
35654;PMS1003;21773;50.010;19.972;2022-12-11T12:39:50;23.25;21.00;17.00
35654;PMS1003;21773;50.010;19.972;2022-12-11T12:43:02;22.00;20.00;18.00
35654;PMS1003;21773;50.010;19.972;2022-12-11T12:46:14;19.00;18.00;16.00
35654;PMS1003;21773;50.010;19.972;2022-12-11T12:49:32;23.20;19.80;17.20
35654;PMS1003;21773;50.010;19.972;2022-12-11T12:52:40;22.00;21.00;19.40
35654;PMS1003;21773;50.010;19.972;2022-12-11T12:55:45;21.40;19.00;16.20
35654;PMS1003;21773;50.010;19.972;2022-12-11T12:58:50;26.20;23.00;20.00
35654;PMS1003;21773;50.010;19.972;2022-12-11T13:01:54;26.20;25.20;21.40
35654;PMS1003;21773;50.010;19.972;2022-12-11T13:05:01;22.00;21.00;18.00
35654;PMS1003;21773;50.010;19.972;2022-12-11T13:08:24;28.00;24.00;20.00
35654;PMS1003;21773;50.010;19.972;2022-12-11T13:11:32;23.40;21.00;19.00
35654;PMS1003;21773;50.010;19.972;2022-12-11T13:14:36;20.00;18.40;16.00
35654;PMS1003;21773;50.010;19.972;2022-12-11T13:17:39;22.00;20.40;18.00
35654;PMS1003;21773;50.010;19.972;2022-12-11T13:20:45;21.00;19.00;18.00
35654;PMS1003;21773;50.010;19.972;2022-12-11T13:23:53;26.00;22.00;19.60
35654;PMS1003;21773;50.010;19.972;2022-12-11T13:27:06;26.00;23.40;20.00
35654;PMS1003;21773;50.010;19.972;2022-12-11T13:30:20;22.40;21.00;18.00
35654;PMS1003;21773;50.010;19.972;2022-12-11T13:33:27;24.50;23.00;20.00
35654;PMS1003;21773;50.010;19.972;2022-12-11T13:36:35;22.00;20.00;18.00
35654;PMS1003;21773;50.010;19.972;2022-12-11T13:39:44;24.60;24.00;20.60
35654;PMS1003;21773;50.010;19.972;2022-12-11T13:42:49;23.00;22.00;19.50
35654;PMS1003;21773;50.010;19.972;2022-12-11T13:45:57;26.00;24.00;20.40
35654;PMS1003;21773;50.010;19.972;2022-12-11T13:49:03;28.00;23.40;20.00
35654;PMS1003;21773;50.010;19.972;2022-12-11T13:52:14;22.00;20.40;18.40
35654;PMS1003;21773;50.010;19.972;2022-12-11T13:55:23;20.00;19.40;17.00
35654;PMS1003;21773;50.010;19.972;2022-12-11T13:58:28;29.00;25.20;20.00
35654;PMS1003;21773;50.010;19.972;2022-12-11T14:01:35;23.00;23.00;20.00
35654;PMS1003;21773;50.010;19.972;2022-12-11T14:04:39;29.40;26.00;21.00
35654;PMS1003;21773;50.010;19.972;2022-12-11T14:07:45;28.00;25.40;20.80
35654;PMS1003;21773;50.010;19.972;2022-12-11T14:10:52;24.50;21.00;18.50
35654;PMS1003;21773;50.010;19.972;2022-12-11T14:13:57;24.00;21.60;18.60
35654;PMS1003;21773;50.010;19.972;2022-12-11T14:17:02;23.50;21.50;18.00
35654;PMS1003;21773;50.010;19.972;2022-12-11T14:20:06;23.00;21.25;18.25
35654;PMS1003;21773;50.010;19.972;2022-12-11T14:23:20;23.00;21.00;16.00
35654;PMS1003;21773;50.010;19.972;2022-12-11T14:26:27;26.40;25.00;21.00
35654;PMS1003;21773;50.010;19.972;2022-12-11T14:29:32;25.00;23.50;20.00
35654;PMS1003;21773;50.010;19.972;2022-12-11T14:32:37;22.00;20.00;16.80
35654;PMS1003;21773;50.010;19.972;2022-12-11T14:35:44;22.60;20.00;17.00
35654;PMS1003;21773;50.010;19.972;2022-12-11T14:38:51;26.00;23.33;20.00
35654;PMS1003;21773;50.010;19.972;2022-12-11T14:42:01;25.00;23.40;20.00
35654;PMS1003;21773;50.010;19.972;2022-12-11T14:45:12;26.00;24.00;20.00
35654;PMS1003;21773;50.010;19.972;2022-12-11T14:48:22;30.00;27.40;22.00
35654;PMS1003;21773;50.010;19.972;2022-12-11T14:51:32;30.40;28.40;22.40
35654;PMS1003;21773;50.010;19.972;2022-12-11T14:54:41;31.60;28.00;22.00
35654;PMS1003;21773;50.010;19.972;2022-12-11T14:57:50;30.00;27.00;22.00
35654;PMS1003;21773;50.010;19.972;2022-12-11T15:00:58;32.50;28.25;22.00
35654;PMS1003;21773;50.010;19.972;2022-12-11T15:04:04;22.50;21.25;18.00
35654;PMS1003;21773;50.010;19.972;2022-12-11T15:07:15;25.20;22.20;19.20
35654;PMS1003;21773;50.010;19.972;2022-12-11T15:10:23;29.40;27.80;22.00
35654;PMS1003;21773;50.010;19.972;2022-12-11T15:13:33;27.00;24.00;20.00
35654;PMS1003;21773;50.010;19.972;2022-12-11T15:16:39;23.60;21.60;19.00
35654;PMS1003;21773;50.010;19.972;2022-12-11T15:19:45;26.00;25.00;20.00
35654;PMS1003;21773;50.010;19.972;2022-12-11T15:22:52;30.00;26.40;21.00
35654;PMS1003;21773;50.010;19.972;2022-12-11T15:25:59;32.80;29.00;22.20
35654;PMS1003;21773;50.010;19.972;2022-12-11T15:29:06;29.80;27.40;21.80
35654;PMS1003;21773;50.010;19.972;2022-12-11T15:32:26;32.40;28.00;22.60
35654;PMS1003;21773;50.010;19.972;2022-12-11T15:35:32;30.00;26.60;22.00
35654;PMS1003;21773;50.010;19.972;2022-12-11T15:38:37;32.00;29.00;23.00
35654;PMS1003;21773;50.010;19.972;2022-12-11T15:41:43;32.50;28.50;23.00
35654;PMS1003;21773;50.010;19.972;2022-12-11T15:44:48;30.25;26.75;21.00
35654;PMS1003;21773;50.010;19.972;2022-12-11T15:47:52;32.00;27.00;20.00
35654;PMS1003;21773;50.010;19.972;2022-12-11T15:50:55;29.80;26.00;20.00
35654;PMS1003;21773;50.010;19.972;2022-12-11T15:53:59;30.60;26.80;21.20
35654;PMS1003;21773;50.010;19.972;2022-12-11T15:57:03;32.40;27.00;22.00
35654;PMS1003;21773;50.010;19.972;2022-12-11T16:00:12;31.00;28.00;21.20
35654;PMS1003;21773;50.010;19.972;2022-12-11T16:03:18;28.80;25.80;20.80
35654;PMS1003;21773;50.010;19.972;2022-12-11T16:06:22;35.00;30.00;23.50
35654;PMS1003;21773;50.010;19.972;2022-12-11T16:09:26;32.00;27.75;22.00
35654;PMS1003;21773;50.010;19.972;2022-12-11T16:12:29;31.60;28.60;23.40
35654;PMS1003;21773;50.010;19.972;2022-12-11T16:15:34;27.75;27.50;22.00
35654;PMS1003;21773;50.010;19.972;2022-12-11T16:18:39;31.40;29.00;22.80
35654;PMS1003;21773;50.010;19.972;2022-12-11T16:21:42;29.00;27.00;22.00
35654;PMS1003;21773;50.010;19.972;2022-12-11T16:24:45;31.25;27.50;21.50
35654;PMS1003;21773;50.010;19.972;2022-12-11T16:27:49;31.50;30.00;23.00
35654;PMS1003;21773;50.010;19.972;2022-12-11T16:30:54;32.25;29.25;23.50
35654;PMS1003;21773;50.010;19.972;2022-12-11T16:33:57;29.20;26.00;21.00
35654;PMS1003;21773;50.010;19.972;2022-12-11T16:37:00;35.75;32.00;24.75
35654;PMS1003;21773;50.010;19.972;2022-12-11T16:40:05;32.60;29.00;23.00
35654;PMS1003;21773;50.010;19.972;2022-12-11T16:43:08;31.00;28.00;23.00
35654;PMS1003;21773;50.010;19.972;2022-12-11T16:46:14;33.20;30.00;22.00
35654;PMS1003;21773;50.010;19.972;2022-12-11T16:49:19;34.40;30.00;23.00
35654;PMS1003;21773;50.010;19.972;2022-12-11T16:52:24;32.00;30.00;23.00
35654;PMS1003;21773;50.010;19.972;2022-12-11T16:55:29;31.00;28.40;23.00
35654;PMS1003;21773;50.010;19.972;2022-12-11T16:58:32;36.50;31.50;24.50
35654;PMS1003;21773;50.010;19.972;2022-12-11T17:01:37;35.60;30.00;23.00
35654;PMS1003;21773;50.010;19.972;2022-12-11T17:04:41;36.50;32.00;24.00
35654;PMS1003;21773;50.010;19.972;2022-12-11T17:07:49;31.00;29.40;23.00
35654;PMS1003;21773;50.010;19.972;2022-12-11T17:10:53;31.75;27.50;21.00
35654;PMS1003;21773;50.010;19.972;2022-12-11T17:13:57;33.00;30.00;23.00
35654;PMS1003;21773;50.010;19.972;2022-12-11T17:17:03;34.00;31.00;24.00